Arcata, CA

2:13 PM PDT on September 19, 2014 (GMT -0700)
Arcata | Change Station
CLOSE
Current Station
Airport
Location: Arcata,
Elevation: 217 ft
Nearby Weather Stations

Elev 217 ft 40.98 °N, 124.10 °W | Updated 20 minutes ago

Mostly Cloudy
Mostly Cloudy
62 °F
Feels Like 62 °F
N
6
Wind Variable Wind from West

Today
High -- | Low -- °F
--% Chance of Precip.
Yesterday
High -- | Low -- °F
Precip. -- in
7:01 AM 7:18 PM
Waning Crescent, 17% visible
Pressure 29.93 in
Visibility 10.0 miles
Clouds Scattered Clouds 500 ft
Dew Point 58 °F
Humidity 86%
Rainfall 0.00 in
Snow Depth 0 in , 0 in , 0 in
UV 6 out of 12
Pollen 6.40 out of 12
Air Quality Not available.
Flu Activity Not available.
METAR KACV 192053Z AUTO 27005KT 10SM SCT005 17/14 A2991 RMK AO2 SLP133 T01670144 56013

More Conditions Fewer Conditions

Pressure 29.93 in
Visibility 10.0 miles
Clouds Scattered Clouds 500 ft
Dew Point 58 °F
Humidity 86%
Rainfall 0.00 in
Snow Depth 0 in , 0 in , 0 in
UV 6 out of 12
Pollen 6.40 out of 12
Air Quality Not available.
Flu Activity Not available.
METAR KACV 192053Z AUTO 27005KT 10SM SCT005 17/14 A2991 RMK AO2 SLP133 T01670144 56013

More Conditions Fewer Conditions

10-Day Weather Forecast

Almanac

Astronomy

Sep. 19, 2014 Rise Set
Actual Time 7:01 AM PDT 7:18 PM PDT
Civil Twilight 6:33 AM PDT 7:45 PM PDT
Nautical Twilight 6:01 AM PDT 8:18 PM PDT
Astronomical Twilight 5:28 AM PDT 8:51 PM PDT
Moon 2:49 AM PDT 4:52 PM PDT
Length of Visible Light 13h 12m
Length of Day
12h 17m
Tomorrow will be 2m 42s shorter.
Waning Crescent, 17% of the Moon is Illuminated
Today
Waning Crescent
Sep 24
New
Oct 1
First Quarter
Oct 8
Full
Oct 15
Last Quarter

Today's Extremes

State Highs State Lows

Community

WunderPhotos

Upload Photos

1,754,703 photos uploaded!

WunderBlogs® & News

By Dr. Jeff Masters
Director of Meteorology, Weather Underground
By Kari Strenfel
Meteorologist, Weather Underground
By Christopher C. Burt
Weather Historian, Weather Underground
September 19, 2014
September 19, 2014
September 19, 2014

Nearby

Snow Depth

Station Depth Elevation
Adin Mountain 0 in 6200 ft
Summit Meadow 0 in 9122 ft
Leavitt Lake 0 in 9400 ft
Burnside Lake 0 in 8139 ft
Leavitt Meadows 0 in 7200 ft

Earthquake Activity

City Distance Mag. Time & Date
No recent earthquake activity has been reported nearby.
Minimum magnitude displayed is 2.5.

Coastal Water Temperatures

Place Temperature
Crescent City, CA 57.9 °F
North Spit, CA 57.9 °F
Port Orford, OR 54.0 °F

Nearby Weather Stations